This is the latest recevied weather packets stored in our database for station/object I3RKE-10. If no packets are shown the sender has not sent any weather packets the latest 10 day(s).
| Time | Temp. | Humidity | Pressure | Rain* | Wind** | Luminosity | Snow |
|---|---|---|---|---|---|---|---|
| 1777392637 | 23.33° C | 40% | 1008.2 hPa | - | - | - | - |
| 1777391737 | 26.11° C | 31% | 1008.1 hPa | - | - | - | - |
| 1777390871 | 28.33° C | 26% | 1008.1 hPa | - | - | - | - |
| 1777390837 | 28.33° C | 26% | 1008.1 hPa | - | - | - | - |
| 1777389937 | 27.22° C | 28% | 1008 hPa | - | - | - | - |
| 1777389037 | 26.67° C | 28% | 1008 hPa | - | - | - | - |
| 1777388137 | 26.67° C | 28% | 1008.1 hPa | - | - | - | - |
| 1777387236 | 26.67° C | 28% | 1008.2 hPa | - | - | - | - |
| 1777386336 | 26.11° C | 29% | 1008.4 hPa | - | - | - | - |
| 1777385436 | 25.56° C | 29% | 1008.5 hPa | - | - | - | - |
| 1777384536 | 26.67° C | 28% | 1008.5 hPa | - | - | - | - |
| 1777383636 | 26.67° C | 27% | 1008.5 hPa | - | - | - | - |
| 1777382736 | 27.78° C | 26% | 1008.6 hPa | - | - | - | - |
| 1777381877 | 28.89° C | 25% | 1008.8 hPa | - | - | - | - |
| 1777381836 | 28.89° C | 25% | 1008.8 hPa | - | - | - | - |
| 1777380936 | 27.22° C | 27% | 1008.9 hPa | - | - | - | - |
| 1777380068 | 27.22° C | 27% | 1008.9 hPa | - | - | - | - |
| 1777380036 | 27.22° C | 27% | 1008.9 hPa | - | - | - | - |
| 1777379136 | 26.67° C | 28% | 1008.9 hPa | - | - | - | - |
| 1777378235 | 27.78° C | 26% | 1009 hPa | - | - | - | - |
| 1777377336 | 28.33° C | 27% | 1009 hPa | - | - | - | - |
| 1777376435 | 27.78° C | 27% | 1009.2 hPa | - | - | - | - |
| 1777375535 | 26.67° C | 29% | 1009.3 hPa | - | - | - | - |
| 1777374635 | 26.11° C | 29% | 1009.6 hPa | - | - | - | - |
| 1777373735 | 26.67° C | 29% | 1009.6 hPa | - | - | - | - |
* Rain since midnight (hover to see other rain measurements)
** Current wind speed in m/s (hover to see current wind gust speed)